createdAt,value
2018-06-09T00:00:43.337Z,97280.63
2018-06-09T00:03:12.565Z,97280.28
2018-06-09T00:05:41.016Z,97280.09
2018-06-09T00:08:09.444Z,97273.33
2018-06-09T00:10:37.974Z,97271.13
2018-06-09T00:13:06.365Z,97275.86
2018-06-09T00:15:35.336Z,97278.14
2018-06-09T00:18:03.826Z,97276.80
2018-06-09T00:20:32.656Z,97286.23
2018-06-09T00:23:01.100Z,97288.43
2018-06-09T00:25:29.577Z,97280.36
2018-06-09T00:27:58.026Z,97283.39
2018-06-09T00:30:26.446Z,97281.11
2018-06-09T00:32:54.958Z,97283.70
2018-06-09T00:35:23.407Z,97282.91
2018-06-09T00:37:51.898Z,97289.30
2018-06-09T00:40:20.379Z,97291.27
2018-06-09T00:42:48.782Z,97291.14
2018-06-09T00:45:17.204Z,97287.75
2018-06-09T00:47:45.672Z,97286.26
2018-06-09T00:50:14.266Z,97288.19
2018-06-09T00:52:42.776Z,97296.45
2018-06-09T00:55:11.496Z,97300.45
2018-06-09T00:57:40.242Z,97297.25
2018-06-09T01:00:08.684Z,97296.19
2018-06-09T01:02:37.123Z,97294.61
2018-06-09T01:05:05.618Z,97294.83
2018-06-09T01:07:34.075Z,97288.72
2018-06-09T01:10:02.517Z,97279.48
2018-06-09T01:12:31.038Z,97277.81
2018-06-09T01:15:00.127Z,97282.82
2018-06-09T01:17:28.580Z,97280.81
2018-06-09T01:19:57.074Z,97276.15
2018-06-09T01:22:25.642Z,97267.23
2018-06-09T01:24:54.285Z,97280.09
2018-06-09T01:27:22.693Z,97284.27
2018-06-09T01:29:51.350Z,97295.16
2018-06-09T01:32:19.805Z,97290.44
2018-06-09T01:34:48.519Z,97289.65
2018-06-09T01:37:17.007Z,97285.17
2018-06-09T01:39:45.443Z,97282.25
2018-06-09T01:42:13.962Z,97288.43
2018-06-09T01:44:42.453Z,97284.97
2018-06-09T01:47:10.872Z,97285.92
2018-06-09T01:49:39.344Z,97285.35
2018-06-09T01:52:07.792Z,97281.44
2018-06-09T01:54:36.266Z,97278.63
2018-06-09T01:57:04.800Z,97266.72
2018-06-09T01:59:33.212Z,97271.45
2018-06-09T02:02:01.710Z,97268.21
2018-06-09T02:04:30.286Z,97267.23
2018-06-09T02:07:01.755Z,97267.15
2018-06-09T02:09:30.234Z,97263.63
2018-06-09T02:11:58.766Z,97259.66
2018-06-09T02:14:27.188Z,97264.05
2018-06-09T02:16:55.726Z,97267.70
2018-06-09T02:19:24.209Z,97267.03
2018-06-09T02:21:52.927Z,97274.85
2018-06-09T02:24:21.522Z,97268.52
2018-06-09T02:26:49.974Z,97278.48
2018-06-09T02:29:18.430Z,97278.71
2018-06-09T02:31:47.887Z,97289.80
2018-06-09T02:34:16.320Z,97287.94
2018-06-09T02:36:44.836Z,97295.91
2018-06-09T02:39:13.293Z,97285.19
2018-06-09T02:41:41.807Z,97286.08
2018-06-09T02:44:10.305Z,97288.23
2018-06-09T02:46:38.717Z,97287.02
2018-06-09T02:49:07.155Z,97284.74
2018-06-09T02:51:35.597Z,97285.94
2018-06-09T02:54:03.995Z,97283.91
2018-06-09T02:56:32.491Z,97282.37
2018-06-09T02:59:00.905Z,97279.30
2018-06-09T03:01:29.605Z,97280.66
2018-06-09T03:03:58.027Z,97277.33
2018-06-09T03:06:26.527Z,97273.63
2018-06-09T03:08:54.922Z,97279.72
2018-06-09T03:11:23.363Z,97279.02
2018-06-09T03:13:51.813Z,97283.61
2018-06-09T03:16:20.184Z,97288.48
2018-06-09T03:18:48.691Z,97290.77
2018-06-09T03:21:17.134Z,97286.75
2018-06-09T03:23:46.337Z,97291.78
2018-06-09T03:26:14.811Z,97273.48
2018-06-09T03:28:43.290Z,97278.48
2018-06-09T03:31:11.760Z,97276.14
2018-06-09T03:33:40.204Z,97277.78
2018-06-09T03:36:08.664Z,97284.81
2018-06-09T03:38:37.093Z,97295.80
2018-06-09T03:41:06.098Z,97302.45
2018-06-09T03:43:34.593Z,97313.13
2018-06-09T03:46:03.119Z,97318.09
2018-06-09T03:48:31.567Z,97318.70
2018-06-09T03:51:00.023Z,97316.73
2018-06-09T03:53:28.525Z,97321.64
2018-06-09T03:55:57.030Z,97325.13
2018-06-09T03:58:27.075Z,97333.54
2018-06-09T04:00:55.556Z,97337.81
2018-06-09T04:03:23.972Z,97336.53
2018-06-09T04:05:52.513Z,97331.13
2018-06-09T04:08:20.917Z,97327.31
2018-06-09T04:10:49.427Z,97337.50
2018-06-09T04:13:17.849Z,97335.88
2018-06-09T04:15:46.854Z,97335.45
2018-06-09T04:18:15.261Z,97343.14
2018-06-09T04:20:43.785Z,97339.06
2018-06-09T04:23:12.157Z,97348.51
2018-06-09T04:25:40.672Z,97354.18
2018-06-09T04:28:09.133Z,97351.45
2018-06-09T04:30:37.540Z,97344.28
2018-06-09T04:33:06.695Z,97342.92
2018-06-09T04:35:35.676Z,97341.56
2018-06-09T04:38:04.102Z,97332.95
2018-06-09T04:40:32.543Z,97334.92
2018-06-09T04:43:01.188Z,97343.95
2018-06-09T04:45:29.581Z,97346.63
2018-06-09T04:47:58.058Z,97349.41
2018-06-09T04:50:28.825Z,97352.09
2018-06-09T04:52:57.280Z,97348.00
2018-06-09T04:55:25.775Z,97340.48
2018-06-09T04:57:54.339Z,97345.59
2018-06-09T05:00:22.754Z,97348.20
2018-06-09T05:02:51.199Z,97346.36
2018-06-09T05:05:19.839Z,97347.88
2018-06-09T05:07:48.349Z,97342.34
2018-06-09T05:10:17.961Z,97343.00
2018-06-09T05:12:46.404Z,97347.66
2018-06-09T05:15:14.917Z,97356.44
2018-06-09T05:17:43.427Z,97354.98
2018-06-09T05:20:11.864Z,97352.41
2018-06-09T05:22:40.325Z,97355.83
2018-06-09T05:25:08.858Z,97356.48
2018-06-09T05:27:37.903Z,97358.09
2018-06-09T05:30:06.431Z,97360.19
2018-06-09T05:32:34.942Z,97364.83
2018-06-09T05:35:03.944Z,97362.77
2018-06-09T05:37:35.786Z,97363.82
2018-06-09T05:40:08.527Z,97359.86
2018-06-09T05:42:37.743Z,97363.92
2018-06-09T05:45:09.741Z,97367.27
2018-06-09T05:47:38.733Z,97370.03
2018-06-09T05:50:07.605Z,97383.98
2018-06-09T05:52:37.253Z,97385.34
2018-06-09T05:55:07.776Z,97383.14
2018-06-09T05:57:37.495Z,97382.95
2018-06-09T06:00:06.348Z,97386.39
2018-06-09T06:02:35.981Z,97380.70
2018-06-09T06:05:06.391Z,97380.49
2018-06-09T06:07:35.828Z,97381.97
2018-06-09T06:10:04.562Z,97389.16
2018-06-09T06:12:33.616Z,97390.23
2018-06-09T06:15:02.776Z,97392.40
2018-06-09T06:17:31.549Z,97398.87
2018-06-09T06:20:01.636Z,97402.60
2018-06-09T06:22:30.765Z,97393.75
2018-06-09T06:24:59.342Z,97395.05
2018-06-09T06:27:28.903Z,97397.01
2018-06-09T06:29:57.927Z,97392.39
2018-06-09T06:32:27.517Z,97395.91
2018-06-09T06:34:56.450Z,97390.73
2018-06-09T06:37:24.987Z,97384.59
2018-06-09T06:39:53.636Z,97394.23
2018-06-09T06:42:22.963Z,97390.80
2018-06-09T06:44:51.608Z,97394.27
2018-06-09T06:47:20.147Z,97399.70
2018-06-09T06:49:48.737Z,97405.38
2018-06-09T06:52:17.440Z,97397.70
2018-06-09T06:54:45.958Z,97397.92
2018-06-09T06:57:14.507Z,97401.20
2018-06-09T06:59:43.000Z,97394.95
2018-06-09T07:02:11.426Z,97398.86
2018-06-09T07:04:39.898Z,97392.22
2018-06-09T07:07:08.387Z,97394.26
2018-06-09T07:09:36.962Z,97390.89
2018-06-09T07:12:05.415Z,97402.31
2018-06-09T07:14:33.887Z,97401.00
2018-06-09T07:17:02.373Z,97398.59
2018-06-09T07:19:30.842Z,97391.67
2018-06-09T07:21:59.275Z,97393.67
2018-06-09T07:24:27.803Z,97396.17
2018-06-09T07:26:56.215Z,97406.36
2018-06-09T07:29:24.656Z,97406.08
2018-06-09T07:31:53.081Z,97413.60
2018-06-09T07:34:21.523Z,97410.70
2018-06-09T07:36:49.947Z,97408.76
2018-06-09T07:39:18.373Z,97408.47
2018-06-09T07:41:46.822Z,97398.96
2018-06-09T07:44:15.319Z,97402.95
2018-06-09T07:46:43.752Z,97405.91
2018-06-09T07:49:12.238Z,97401.86
2018-06-09T07:51:40.671Z,97402.80
2018-06-09T07:54:09.158Z,97404.18
2018-06-09T07:56:37.845Z,97402.69
2018-06-09T07:59:06.366Z,97396.22
2018-06-09T08:01:34.787Z,97401.50
2018-06-09T08:04:03.249Z,97397.11
2018-06-09T08:06:31.707Z,97393.31
2018-06-09T08:09:00.157Z,97394.80
2018-06-09T08:11:28.764Z,97396.61
2018-06-09T08:13:57.263Z,97401.96
2018-06-09T08:16:25.956Z,97393.20
2018-06-09T08:18:54.372Z,97392.16
2018-06-09T08:21:22.867Z,97393.86
2018-06-09T08:23:51.337Z,97391.15
2018-06-09T08:26:19.908Z,97390.78
2018-06-09T08:28:48.537Z,97384.66
2018-06-09T08:31:17.041Z,97382.44
2018-06-09T08:33:45.646Z,97384.77
2018-06-09T08:36:14.763Z,97386.34
2018-06-09T08:38:43.168Z,97386.31
2018-06-09T08:41:12.224Z,97389.21
2018-06-09T08:43:41.338Z,97387.28
2018-06-09T08:46:09.879Z,97379.17
2018-06-09T08:48:39.579Z,97381.10
2018-06-09T08:51:08.148Z,97368.88
2018-06-09T08:53:37.146Z,97365.30
2018-06-09T08:56:07.181Z,97371.70
2018-06-09T08:58:36.244Z,97367.41
2018-06-09T09:01:04.721Z,97357.84
2018-06-09T09:03:33.703Z,97358.59
2018-06-09T09:06:02.265Z,97355.78
2018-06-09T09:08:30.883Z,97351.75
2018-06-09T09:10:59.509Z,97348.86
2018-06-09T09:13:28.951Z,97350.25
2018-06-09T09:15:57.480Z,97353.38
2018-06-09T09:18:26.661Z,97353.97
2018-06-09T09:20:55.233Z,97355.55
2018-06-09T09:23:23.824Z,97356.53
2018-06-09T09:25:52.415Z,97351.20
2018-06-09T09:28:21.658Z,97353.53
2018-06-09T09:30:51.266Z,97353.08
2018-06-09T09:33:26.292Z,97355.05
2018-06-09T09:35:54.848Z,97346.14
2018-06-09T09:38:23.286Z,97354.78
2018-06-09T09:40:51.801Z,97358.09
2018-06-09T09:43:21.272Z,97361.23
2018-06-09T09:45:49.920Z,97363.66
2018-06-09T09:48:19.481Z,97355.16
2018-06-09T09:50:48.790Z,97357.09
2018-06-09T09:53:17.275Z,97349.16
2018-06-09T09:55:45.944Z,97350.11
2018-06-09T09:58:14.475Z,97345.43
2018-06-09T10:00:42.983Z,97340.51
2018-06-09T10:03:11.596Z,97341.20
2018-06-09T10:05:41.351Z,97339.91
2018-06-09T10:08:10.046Z,97335.18
2018-06-09T10:10:38.713Z,97339.92
2018-06-09T10:13:07.302Z,97346.03
2018-06-09T10:15:35.967Z,97341.75
2018-06-09T10:18:04.662Z,97338.98
2018-06-09T10:20:33.193Z,97347.83
2018-06-09T10:23:01.727Z,97342.19
2018-06-09T10:25:30.590Z,97345.39
2018-06-09T10:27:59.004Z,97345.69
2018-06-09T10:30:27.549Z,97347.37
2018-06-09T10:32:56.032Z,97351.95
2018-06-09T10:35:24.644Z,97349.50
2018-06-09T10:37:53.143Z,97347.17
2018-06-09T10:40:21.695Z,97350.94
2018-06-09T10:42:50.176Z,97348.75
2018-06-09T10:45:18.726Z,97350.34
2018-06-09T10:47:47.207Z,97355.49
2018-06-09T10:50:15.663Z,97348.50
2018-06-09T10:52:44.143Z,97350.63
2018-06-09T10:55:13.295Z,97341.43
2018-06-09T10:57:41.870Z,97340.04
2018-06-09T11:00:10.366Z,97335.52
2018-06-09T11:02:38.814Z,97332.20
2018-06-09T11:05:07.299Z,97336.08
2018-06-09T11:07:35.788Z,97327.96
2018-06-09T11:10:04.590Z,97321.89
2018-06-09T11:12:33.064Z,97322.66
2018-06-09T11:15:01.498Z,97322.25
2018-06-09T11:17:29.971Z,97317.00
2018-06-09T11:19:58.484Z,97316.73
2018-06-09T11:22:27.001Z,97312.59
2018-06-09T11:24:55.459Z,97314.75
2018-06-09T11:27:23.884Z,97302.19
2018-06-09T11:29:52.458Z,97307.41
2018-06-09T11:32:20.967Z,97299.75
2018-06-09T11:34:49.383Z,97304.04
2018-06-09T11:37:17.881Z,97299.77
2018-06-09T11:39:46.330Z,97298.05
2018-06-09T11:42:14.805Z,97295.74
2018-06-09T11:44:43.299Z,97288.92
2018-06-09T11:47:11.807Z,97290.77
2018-06-09T11:49:40.271Z,97291.13
2018-06-09T11:52:08.767Z,97286.98
2018-06-09T11:54:37.351Z,97281.11
2018-06-09T11:57:05.930Z,97271.54
2018-06-09T11:59:34.532Z,97268.22
2018-06-09T12:02:03.342Z,97259.20
2018-06-09T12:04:31.762Z,97260.77
2018-06-09T12:07:01.316Z,97269.94
2018-06-09T12:09:29.901Z,97265.52
2018-06-09T12:11:58.465Z,97275.30
2018-06-09T12:14:26.966Z,97265.64
2018-06-09T12:16:55.464Z,97259.67
2018-06-09T12:19:23.934Z,97259.34
2018-06-09T12:21:52.872Z,97257.30
2018-06-09T12:24:21.825Z,97257.44
2018-06-09T12:26:50.580Z,97260.52
2018-06-09T12:29:19.325Z,97259.83
2018-06-09T12:31:47.845Z,97260.09
2018-06-09T12:34:17.039Z,97259.23
2018-06-09T12:36:46.080Z,97255.09
2018-06-09T12:39:14.580Z,97254.03
2018-06-09T12:41:43.771Z,97256.81
2018-06-09T12:44:12.316Z,97248.98
2018-06-09T12:46:40.828Z,97246.97
2018-06-09T12:49:09.276Z,97248.03
2018-06-09T12:51:37.780Z,97236.63
2018-06-09T12:54:06.429Z,97229.13
2018-06-09T12:56:34.934Z,97227.19
2018-06-09T12:59:03.421Z,97225.11
2018-06-09T13:01:33.973Z,97225.25
2018-06-09T13:04:02.514Z,97227.97
2018-06-09T13:06:31.101Z,97227.79
2018-06-09T13:08:59.717Z,97227.97
2018-06-09T13:11:30.144Z,97226.70
2018-06-09T13:13:58.694Z,97218.52
2018-06-09T13:16:27.201Z,97212.72
2018-06-09T13:18:55.645Z,97214.56
2018-06-09T13:21:24.522Z,97219.31
2018-06-09T13:23:53.864Z,97221.08
2018-06-09T13:26:23.010Z,97218.50
2018-06-09T13:28:52.563Z,97212.72
2018-06-09T13:31:21.943Z,97212.48
2018-06-09T13:33:50.977Z,97216.55
2018-06-09T13:36:20.008Z,97216.02
2018-06-09T13:38:48.967Z,97221.97
2018-06-09T13:41:26.924Z,97223.69
2018-06-09T13:43:56.310Z,97214.27
2018-06-09T13:46:25.238Z,97207.92
2018-06-09T13:48:54.348Z,97206.61
2018-06-09T13:51:23.293Z,97199.08
2018-06-09T13:53:52.370Z,97201.42
2018-06-09T13:56:21.361Z,97202.44
2018-06-09T13:58:50.726Z,97210.41
2018-06-09T14:01:20.224Z,97224.96
2018-06-09T14:03:49.624Z,97225.56
2018-06-09T14:06:19.216Z,97226.45
2018-06-09T14:08:48.072Z,97232.47
2018-06-09T14:11:16.897Z,97243.50
2018-06-09T14:13:46.069Z,97254.22
2018-06-09T14:16:15.127Z,97273.99
2018-06-09T14:18:44.308Z,97262.20
2018-06-09T14:21:20.072Z,97266.97
2018-06-09T14:23:49.211Z,97264.34
2018-06-09T14:26:17.748Z,97257.11
2018-06-09T14:28:47.215Z,97256.52
2018-06-09T14:31:22.442Z,97244.72
2018-06-09T14:33:51.638Z,97248.28
2018-06-09T14:36:20.183Z,97246.69
2018-06-09T14:38:48.818Z,97240.51
2018-06-09T14:41:17.934Z,97254.44
2018-06-09T14:43:46.507Z,97254.05
2018-06-09T14:46:15.960Z,97249.30
2018-06-09T14:48:44.897Z,97246.16
2018-06-09T14:51:14.554Z,97245.83
2018-06-09T14:53:44.138Z,97239.63
2018-06-09T14:56:13.732Z,97244.97
2018-06-09T14:58:42.290Z,97245.91
2018-06-09T15:01:10.811Z,97250.97
2018-06-09T15:03:39.337Z,97246.53
2018-06-09T15:06:07.941Z,97244.69
2018-06-09T15:08:36.411Z,97242.71
2018-06-09T15:11:05.536Z,97236.77
2018-06-09T15:13:34.746Z,97231.64
2018-06-09T15:16:04.300Z,97239.31
2018-06-09T15:18:32.946Z,97240.56
2018-06-09T15:21:01.511Z,97238.28
2018-06-09T15:23:29.969Z,97229.11
2018-06-09T15:25:59.182Z,97226.28
2018-06-09T15:28:27.708Z,97225.79
2018-06-09T15:30:56.527Z,97223.12
2018-06-09T15:33:25.137Z,97215.86
2018-06-09T15:35:54.695Z,97220.58
2018-06-09T15:38:23.363Z,97220.17
2018-06-09T15:40:51.947Z,97220.27
2018-06-09T15:43:21.016Z,97219.02
2018-06-09T15:45:49.534Z,97215.16
2018-06-09T15:48:18.100Z,97213.19
2018-06-09T15:50:46.564Z,97221.65
2018-06-09T15:53:15.021Z,97226.60
2018-06-09T15:55:43.508Z,97232.27
2018-06-09T15:58:12.011Z,97238.98
2018-06-09T16:00:40.728Z,97242.70
2018-06-09T16:03:10.336Z,97247.20
2018-06-09T16:05:38.952Z,97256.75
2018-06-09T16:08:09.256Z,97262.98
2018-06-09T16:10:37.840Z,97268.19
2018-06-09T16:13:06.474Z,97271.17
2018-06-09T16:15:34.986Z,97274.38
2018-06-09T16:18:18.274Z,97278.58
2018-06-09T16:20:47.437Z,97274.89
2018-06-09T16:23:16.634Z,97278.66
2018-06-09T16:25:45.097Z,97273.91
2018-06-09T16:28:14.162Z,97272.41
2018-06-09T16:30:42.793Z,97283.61
2018-06-09T16:33:11.388Z,97279.71
2018-06-09T16:35:39.895Z,97280.50
2018-06-09T16:38:09.759Z,97274.98
2018-06-09T16:40:39.054Z,97272.05
2018-06-09T16:43:07.642Z,97278.14
2018-06-09T16:45:36.911Z,97274.79
2018-06-09T16:48:05.946Z,97275.36
2018-06-09T16:50:34.484Z,97290.47
2018-06-09T16:53:02.950Z,97289.02
2018-06-09T16:55:31.449Z,97300.87
2018-06-09T16:57:59.900Z,97301.84
2018-06-09T17:00:28.402Z,97303.08
2018-06-09T17:02:56.991Z,97309.55
2018-06-09T17:05:25.473Z,97303.08
2018-06-09T17:07:54.320Z,97299.94
2018-06-09T17:10:23.132Z,97297.17
2018-06-09T17:12:51.616Z,97302.47
2018-06-09T17:15:20.118Z,97306.77
2018-06-09T17:17:49.863Z,97303.03
2018-06-09T17:20:18.374Z,97300.87
2018-06-09T17:22:47.258Z,97301.89
2018-06-09T17:25:15.919Z,97302.84
2018-06-09T17:27:44.628Z,97293.04
2018-06-09T17:30:14.011Z,97286.95
2018-06-09T17:32:42.451Z,97286.95
2018-06-09T17:35:11.301Z,97280.66
2018-06-09T17:37:39.866Z,97275.74
2018-06-09T17:40:08.395Z,97270.20
2018-06-09T17:42:37.953Z,97273.74
2018-06-09T17:45:06.914Z,97278.86
2018-06-09T17:47:35.489Z,97278.30
2018-06-09T17:50:04.488Z,97275.38
2018-06-09T17:52:33.461Z,97270.28
2018-06-09T17:55:02.079Z,97262.79
2018-06-09T17:57:37.983Z,97271.24
2018-06-09T18:00:07.633Z,97266.92
2018-06-09T18:02:36.115Z,97280.87
2018-06-09T18:05:05.515Z,97287.73
2018-06-09T18:07:34.300Z,97288.11
2018-06-09T18:10:02.990Z,97295.98
2018-06-09T18:12:31.607Z,97295.59
2018-06-09T18:15:00.177Z,97290.08
2018-06-09T18:17:28.956Z,97295.00
2018-06-09T18:19:57.503Z,97290.65
2018-06-09T18:22:26.254Z,97296.19
2018-06-09T18:24:54.825Z,97303.05
2018-06-09T18:27:23.306Z,97305.22
2018-06-09T18:29:52.077Z,97306.77
2018-06-09T18:32:21.704Z,97200.47
2018-06-09T18:34:50.315Z,97314.68
2018-06-09T18:37:18.825Z,97302.91
2018-06-09T18:39:48.145Z,97301.90
2018-06-09T18:42:17.336Z,97295.41
2018-06-09T18:44:45.858Z,97285.80
2018-06-09T18:47:15.558Z,97286.75
2018-06-09T18:49:44.988Z,97280.11
2018-06-09T18:52:13.536Z,97284.63
2018-06-09T18:55:07.683Z,97282.67
2018-06-09T18:57:36.648Z,97282.86
2018-06-09T19:00:06.609Z,97286.95
2018-06-09T19:02:35.347Z,97286.56
2018-06-09T19:05:03.823Z,97289.69
2018-06-09T19:07:32.319Z,97292.83
2018-06-09T19:10:00.821Z,97301.86
2018-06-09T19:12:30.164Z,97300.12
2018-06-09T19:14:59.365Z,97312.05
2018-06-09T19:17:28.646Z,97181.37
2018-06-09T19:19:57.833Z,97317.31
2018-06-09T19:22:27.056Z,97308.36
2018-06-09T19:24:56.006Z,97315.36
2018-06-09T19:27:25.400Z,97317.52
2018-06-09T19:29:54.133Z,97326.91
2018-06-09T19:32:23.197Z,97331.46
2018-06-09T19:34:52.795Z,97327.75
2018-06-09T19:37:21.291Z,97335.28
2018-06-09T19:39:49.825Z,97336.85
2018-06-09T19:42:18.952Z,97333.75
2018-06-09T19:44:47.925Z,97347.45
2018-06-09T19:47:16.825Z,97350.50
2018-06-09T19:49:46.239Z,97356.63
2018-06-09T19:52:15.265Z,97359.37
2018-06-09T19:54:44.221Z,97362.55
2018-06-09T19:57:13.322Z,97363.98
2018-06-09T19:59:42.488Z,97369.88
2018-06-09T20:02:11.454Z,97371.43
2018-06-09T20:04:40.724Z,97360.70
2018-06-09T20:07:09.847Z,97354.88
2018-06-09T20:09:39.067Z,97350.33
2018-06-09T20:12:08.355Z,97345.47
2018-06-09T20:14:37.259Z,97344.66
2018-06-09T20:17:06.287Z,97359.61
2018-06-09T20:19:35.546Z,97363.94
2018-06-09T20:22:04.957Z,97360.47
2018-06-09T20:24:34.248Z,97364.20
2018-06-09T20:27:03.275Z,97366.13
2018-06-09T20:29:32.654Z,97377.23
2018-06-09T20:32:01.183Z,97378.50
2018-06-09T20:34:29.794Z,97375.01
2018-06-09T20:36:58.458Z,97375.31
2018-06-09T20:39:26.948Z,97380.39
2018-06-09T20:41:55.723Z,97380.70
2018-06-09T20:44:24.260Z,97379.70
2018-06-09T20:46:52.812Z,97378.33
2018-06-09T20:49:21.336Z,97379.26
2018-06-09T20:51:49.976Z,97379.81
2018-06-09T20:57:00.849Z,97385.25
2018-06-09T20:59:29.474Z,97377.50
2018-06-09T21:01:58.164Z,97391.63
2018-06-09T21:04:26.725Z,97386.93
2018-06-09T21:06:55.840Z,97376.55
2018-06-09T21:09:24.292Z,97376.49
2018-06-09T21:11:52.833Z,97372.05
2018-06-09T21:14:21.749Z,97369.48
2018-06-09T21:16:50.258Z,97365.53
2018-06-09T21:19:18.914Z,97364.66
2018-06-09T21:21:47.338Z,97368.04
2018-06-09T21:24:15.784Z,97362.94
2018-06-09T21:26:49.746Z,97362.44
2018-06-09T21:29:23.711Z,97354.09
2018-06-09T21:31:52.477Z,97351.23
2018-06-09T21:34:34.001Z,97350.92
2018-06-09T21:37:07.763Z,97340.13
2018-06-09T21:39:41.899Z,97342.13
2018-06-09T21:42:17.953Z,97353.03
2018-06-09T21:44:49.195Z,97366.34
2018-06-09T21:47:18.412Z,97367.30
2018-06-09T21:49:48.059Z,97369.52
2018-06-09T21:52:16.943Z,97370.30
2018-06-09T21:54:46.140Z,97372.66
2018-06-09T21:57:14.706Z,97374.09
2018-06-09T21:59:44.651Z,97384.78
2018-06-09T22:02:13.360Z,97386.75
2018-06-09T22:04:43.386Z,97392.06
2018-06-09T22:07:12.188Z,97392.79
2018-06-09T22:09:41.855Z,97396.31
2018-06-09T22:12:10.425Z,97403.86
2018-06-09T22:14:38.907Z,97401.68
2018-06-09T22:17:07.718Z,97404.26
2018-06-09T22:19:36.235Z,97406.58
2018-06-09T22:22:04.803Z,97408.65
2018-06-09T22:24:33.196Z,97403.86
2018-06-09T22:27:01.649Z,97418.45
2018-06-09T22:29:30.101Z,97424.40
2018-06-09T22:31:58.660Z,97419.55
2018-06-09T22:34:27.133Z,97421.78
2018-06-09T22:36:55.725Z,97419.30
2018-06-09T22:39:24.251Z,97421.09
2018-06-09T22:41:53.468Z,97418.51
2018-06-09T22:44:21.961Z,97418.88
2018-06-09T22:46:50.469Z,97416.81
2018-06-09T22:49:18.960Z,97410.43
2018-06-09T22:51:47.630Z,97418.83
2018-06-09T22:54:16.024Z,97418.02
2018-06-09T22:56:44.529Z,97414.91
2018-06-09T22:59:13.039Z,97422.03
2018-06-09T23:01:41.531Z,97427.38
2018-06-09T23:04:10.039Z,97419.45
2018-06-09T23:06:38.554Z,97422.19
2018-06-09T23:09:08.714Z,97421.55
2018-06-09T23:11:37.164Z,97414.92
2018-06-09T23:14:05.645Z,97416.21
2018-06-09T23:16:34.082Z,97409.58
2018-06-09T23:19:02.572Z,97418.74
2018-06-09T23:21:31.056Z,97415.80
2018-06-09T23:24:00.347Z,97412.48
2018-06-09T23:26:28.780Z,97417.11
2018-06-09T23:28:57.294Z,97414.69
2018-06-09T23:31:26.018Z,97407.45
2018-06-09T23:33:54.464Z,97403.05
2018-06-09T23:36:22.924Z,97402.63
2018-06-09T23:38:51.478Z,97402.36
2018-06-09T23:41:19.907Z,97399.98
2018-06-09T23:43:48.375Z,97402.37
2018-06-09T23:46:16.818Z,97401.69
2018-06-09T23:48:45.223Z,97403.84
2018-06-09T23:51:13.690Z,97398.95
2018-06-09T23:53:42.108Z,97389.53
2018-06-09T23:56:10.656Z,97401.78
2018-06-09T23:58:39.056Z,97397.22
